createdAt,value
2023-03-29T00:02:52.904Z,25.00
2023-03-29T00:06:53.828Z,25.00
2023-03-29T00:10:53.950Z,0.00
2023-03-29T00:14:54.104Z,0.00
2023-03-29T00:18:54.634Z,25.50
2023-03-29T00:22:54.687Z,25.81
2023-03-29T00:26:54.709Z,25.00
2023-03-29T00:30:54.870Z,27.97
2023-03-29T00:34:54.999Z,27.07
2023-03-29T00:38:55.155Z,25.30
2023-03-29T00:42:55.343Z,28.24
2023-03-29T00:46:55.538Z,27.13
2023-03-29T00:50:55.755Z,29.13
2023-03-29T00:54:55.924Z,27.16
2023-03-29T00:58:56.122Z,26.26
2023-03-29T01:02:56.422Z,26.98
2023-03-29T01:10:55.680Z,29.69
2023-03-29T01:18:56.084Z,26.87
2023-03-29T02:58:57.853Z,28.57
2023-03-29T03:06:57.750Z,28.63
2023-03-29T03:14:57.708Z,28.44
2023-03-29T03:22:57.587Z,26.95
2023-03-29T03:34:57.665Z,28.67
2023-03-29T03:42:57.586Z,27.44
2023-03-29T03:50:57.506Z,26.62
2023-03-29T03:58:57.601Z,32.43
2023-03-29T04:06:57.527Z,28.73
2023-03-29T04:14:57.454Z,29.72
2023-03-29T04:26:57.481Z,30.60
2023-03-29T04:34:57.427Z,28.49
2023-03-29T04:42:57.344Z,31.05
2023-03-29T04:50:57.282Z,29.75
2023-03-29T04:58:57.508Z,27.54
2023-03-29T05:06:57.459Z,29.64
2023-03-29T05:10:58.402Z,30.13
2023-03-29T05:18:57.328Z,29.78
2023-03-29T05:26:57.433Z,28.71
2023-03-29T05:38:57.680Z,41.07
2023-03-29T05:46:57.671Z,55.83
2023-03-29T05:50:58.750Z,74.13
2023-03-29T05:54:58.557Z,100.08
2023-03-29T06:03:03.719Z,116.39
2023-03-29T06:10:57.920Z,116.70
2023-03-29T06:18:58.665Z,116.00
2023-03-29T13:03:20.464Z,158.03
2023-03-29T13:07:21.378Z,131.51
2023-03-29T13:11:21.241Z,132.44
2023-03-29T13:15:21.822Z,129.38
2023-03-29T13:19:21.309Z,138.33
2023-03-29T13:23:21.730Z,148.54
2023-03-29T17:51:24.505Z,109.66
2023-03-29T17:55:25.674Z,109.77
2023-03-29T17:59:25.842Z,111.78
2023-03-29T18:03:26.335Z,110.85
2023-03-29T18:07:26.284Z,109.72
2023-03-29T18:11:26.334Z,109.24
2023-03-29T18:15:26.331Z,107.43
2023-03-29T18:19:26.463Z,108.27
2023-03-29T18:23:26.601Z,108.49
2023-03-29T18:27:26.766Z,108.46
2023-03-29T18:31:27.332Z,107.76
2023-03-29T18:35:29.845Z,106.91
2023-03-29T18:39:27.360Z,106.50
2023-03-29T18:43:27.344Z,106.20
2023-03-29T18:47:27.416Z,106.02
2023-03-29T18:51:27.305Z,105.43
2023-03-29T18:55:26.890Z,103.81
2023-03-29T18:59:26.885Z,103.75
2023-03-29T19:03:26.921Z,104.12
2023-03-29T19:07:27.331Z,104.02
2023-03-29T19:11:28.932Z,102.64
2023-03-29T19:15:27.402Z,102.64
2023-03-29T19:19:27.329Z,101.04
2023-03-29T19:23:27.358Z,101.06
2023-03-29T19:27:27.341Z,99.81
2023-03-29T19:31:27.389Z,100.42
2023-03-29T19:35:26.945Z,99.05
2023-03-29T19:39:26.886Z,99.07
2023-03-29T19:43:27.339Z,99.32
2023-03-29T19:47:27.408Z,99.85
2023-03-29T19:51:27.440Z,96.83
2023-03-29T19:55:27.628Z,97.17
2023-03-29T19:59:27.824Z,96.71
2023-03-29T20:03:28.054Z,95.81
2023-03-29T20:07:28.203Z,94.35
2023-03-29T20:11:28.390Z,94.64
2023-03-29T20:15:28.583Z,94.79
2023-03-29T20:19:28.908Z,92.54
2023-03-29T20:23:29.389Z,93.56
2023-03-29T20:27:29.160Z,91.97
2023-03-29T20:31:29.418Z,91.14
2023-03-29T20:35:29.592Z,92.18
2023-03-29T20:39:29.741Z,90.11
2023-03-29T20:43:29.925Z,89.94
2023-03-29T20:47:30.172Z,90.19
2023-03-29T20:51:30.433Z,88.88
2023-03-29T20:55:30.521Z,90.23
2023-03-29T20:59:30.722Z,88.21
2023-03-29T21:03:31.019Z,87.49
2023-03-29T21:07:31.146Z,86.89
2023-03-29T21:11:31.332Z,84.77
2023-03-29T21:15:31.561Z,85.08
2023-03-29T21:19:31.720Z,83.23
2023-03-29T21:23:31.938Z,85.95
2023-03-29T21:27:32.395Z,83.70
2023-03-29T21:31:32.437Z,82.82
2023-03-29T22:27:34.468Z,75.33
2023-03-29T22:31:35.315Z,75.28
2023-03-29T22:35:35.545Z,73.91
2023-03-29T22:39:35.700Z,75.86
2023-03-29T22:43:35.940Z,73.78
2023-03-29T22:47:36.170Z,72.50
2023-03-29T22:51:36.332Z,72.17
2023-03-29T22:55:36.501Z,71.08
2023-03-29T22:59:36.751Z,71.06
2023-03-29T23:03:37.000Z,71.18
